sensor_id;sensor_type;location;lat;lon;timestamp;P1;durP1;ratioP1;P2;durP2;ratioP2
75311;SDS011;63906;55.686;37.532;2023-04-03T00:04:51;5.45;;;3.03;;
75311;SDS011;63906;55.686;37.532;2023-04-03T00:09:52;7.53;;;3.58;;
75311;SDS011;63906;55.686;37.532;2023-04-03T00:14:53;5.15;;;3.22;;
75311;SDS011;63906;55.686;37.532;2023-04-03T00:19:53;3.95;;;3.10;;
75311;SDS011;63906;55.686;37.532;2023-04-03T00:24:54;3.83;;;2.80;;
75311;SDS011;63906;55.686;37.532;2023-04-03T00:29:55;4.70;;;3.20;;
75311;SDS011;63906;55.686;37.532;2023-04-03T00:34:56;7.38;;;3.28;;
75311;SDS011;63906;55.686;37.532;2023-04-03T00:39:56;4.28;;;3.42;;
75311;SDS011;63906;55.686;37.532;2023-04-03T00:49:58;5.23;;;3.53;;
75311;SDS011;63906;55.686;37.532;2023-04-03T00:55:00;5.18;;;2.85;;
75311;SDS011;63906;55.686;37.532;2023-04-03T01:00:05;6.45;;;3.50;;
75311;SDS011;63906;55.686;37.532;2023-04-03T01:05:09;6.88;;;3.88;;
75311;SDS011;63906;55.686;37.532;2023-04-03T01:10:11;6.72;;;3.20;;
75311;SDS011;63906;55.686;37.532;2023-04-03T01:15:19;4.70;;;3.20;;
75311;SDS011;63906;55.686;37.532;2023-04-03T01:25:32;6.90;;;3.92;;
75311;SDS011;63906;55.686;37.532;2023-04-03T01:30:34;5.07;;;3.50;;
75311;SDS011;63906;55.686;37.532;2023-04-03T01:35:47;6.70;;;3.92;;
75311;SDS011;63906;55.686;37.532;2023-04-03T01:40:48;6.30;;;4.22;;
75311;SDS011;63906;55.686;37.532;2023-04-03T01:45:48;7.43;;;4.13;;
75311;SDS011;63906;55.686;37.532;2023-04-03T01:50:50;6.72;;;4.18;;
75311;SDS011;63906;55.686;37.532;2023-04-03T01:55:50;6.47;;;3.97;;
75311;SDS011;63906;55.686;37.532;2023-04-03T02:00:51;6.53;;;4.18;;
75311;SDS011;63906;55.686;37.532;2023-04-03T02:05:52;15.15;;;4.85;;
75311;SDS011;63906;55.686;37.532;2023-04-03T02:10:53;5.32;;;3.85;;
75311;SDS011;63906;55.686;37.532;2023-04-03T02:15:53;8.00;;;4.63;;
75311;SDS011;63906;55.686;37.532;2023-04-03T02:20:54;8.68;;;4.38;;
75311;SDS011;63906;55.686;37.532;2023-04-03T02:26:05;7.50;;;4.90;;
75311;SDS011;63906;55.686;37.532;2023-04-03T02:31:07;9.60;;;4.78;;
75311;SDS011;63906;55.686;37.532;2023-04-03T02:36:09;5.95;;;3.83;;
75311;SDS011;63906;55.686;37.532;2023-04-03T02:41:10;12.55;;;5.40;;
75311;SDS011;63906;55.686;37.532;2023-04-03T02:46:12;6.63;;;4.50;;
75311;SDS011;63906;55.686;37.532;2023-04-03T02:51:15;6.60;;;4.30;;
75311;SDS011;63906;55.686;37.532;2023-04-03T02:56:16;6.53;;;4.22;;
75311;SDS011;63906;55.686;37.532;2023-04-03T03:01:18;6.28;;;4.13;;
75311;SDS011;63906;55.686;37.532;2023-04-03T03:06:18;9.82;;;5.50;;
75311;SDS011;63906;55.686;37.532;2023-04-03T03:11:19;6.82;;;4.97;;
75311;SDS011;63906;55.686;37.532;2023-04-03T03:16:20;7.22;;;5.00;;
75311;SDS011;63906;55.686;37.532;2023-04-03T03:21:20;7.95;;;4.43;;
75311;SDS011;63906;55.686;37.532;2023-04-03T03:26:21;6.90;;;4.38;;
75311;SDS011;63906;55.686;37.532;2023-04-03T03:31:21;8.82;;;5.00;;
75311;SDS011;63906;55.686;37.532;2023-04-03T03:36:22;8.73;;;5.00;;
75311;SDS011;63906;55.686;37.532;2023-04-03T03:41:22;7.30;;;4.90;;
75311;SDS011;63906;55.686;37.532;2023-04-03T03:46:23;11.37;;;6.00;;
75311;SDS011;63906;55.686;37.532;2023-04-03T03:51:23;15.07;;;7.65;;
75311;SDS011;63906;55.686;37.532;2023-04-03T03:56:24;8.30;;;5.30;;
75311;SDS011;63906;55.686;37.532;2023-04-03T04:01:25;13.57;;;7.22;;
75311;SDS011;63906;55.686;37.532;2023-04-03T04:06:26;14.45;;;7.28;;
75311;SDS011;63906;55.686;37.532;2023-04-03T04:11:27;14.63;;;8.13;;
75311;SDS011;63906;55.686;37.532;2023-04-03T04:16:28;11.35;;;7.03;;
75311;SDS011;63906;55.686;37.532;2023-04-03T04:21:29;14.40;;;7.20;;
75311;SDS011;63906;55.686;37.532;2023-04-03T04:26:29;10.65;;;6.57;;
75311;SDS011;63906;55.686;37.532;2023-04-03T04:31:30;14.05;;;6.85;;
75311;SDS011;63906;55.686;37.532;2023-04-03T04:36:30;10.82;;;6.68;;
75311;SDS011;63906;55.686;37.532;2023-04-03T04:41:31;9.50;;;6.70;;
75311;SDS011;63906;55.686;37.532;2023-04-03T04:46:31;14.98;;;7.43;;
75311;SDS011;63906;55.686;37.532;2023-04-03T04:51:32;12.38;;;7.07;;
75311;SDS011;63906;55.686;37.532;2023-04-03T04:56:35;12.13;;;6.30;;
75311;SDS011;63906;55.686;37.532;2023-04-03T05:01:38;16.02;;;8.18;;
75311;SDS011;63906;55.686;37.532;2023-04-03T05:06:39;10.63;;;6.37;;
75311;SDS011;63906;55.686;37.532;2023-04-03T05:11:39;14.60;;;8.25;;
75311;SDS011;63906;55.686;37.532;2023-04-03T05:16:40;10.90;;;7.05;;
75311;SDS011;63906;55.686;37.532;2023-04-03T05:21:41;16.25;;;8.45;;
75311;SDS011;63906;55.686;37.532;2023-04-03T05:26:41;13.55;;;7.72;;
75311;SDS011;63906;55.686;37.532;2023-04-03T05:31:42;12.38;;;6.97;;
75311;SDS011;63906;55.686;37.532;2023-04-03T05:36:43;13.10;;;7.47;;
75311;SDS011;63906;55.686;37.532;2023-04-03T05:41:44;10.30;;;6.90;;
75311;SDS011;63906;55.686;37.532;2023-04-03T05:46:44;12.35;;;6.65;;
75311;SDS011;63906;55.686;37.532;2023-04-03T05:51:45;12.07;;;6.78;;
75311;SDS011;63906;55.686;37.532;2023-04-03T05:56:46;10.77;;;6.78;;
75311;SDS011;63906;55.686;37.532;2023-04-03T06:01:46;9.90;;;6.18;;
75311;SDS011;63906;55.686;37.532;2023-04-03T06:06:51;9.98;;;6.00;;
75311;SDS011;63906;55.686;37.532;2023-04-03T06:11:53;13.45;;;6.30;;
75311;SDS011;63906;55.686;37.532;2023-04-03T06:16:54;12.95;;;6.68;;
75311;SDS011;63906;55.686;37.532;2023-04-03T06:21:55;13.77;;;7.43;;
75311;SDS011;63906;55.686;37.532;2023-04-03T06:26:56;15.80;;;7.95;;
75311;SDS011;63906;55.686;37.532;2023-04-03T06:31:57;12.50;;;6.85;;
75311;SDS011;63906;55.686;37.532;2023-04-03T06:36:57;12.90;;;6.75;;
75311;SDS011;63906;55.686;37.532;2023-04-03T06:41:58;11.80;;;6.15;;
75311;SDS011;63906;55.686;37.532;2023-04-03T06:46:59;13.18;;;7.43;;
75311;SDS011;63906;55.686;37.532;2023-04-03T06:51:59;13.07;;;6.47;;
75311;SDS011;63906;55.686;37.532;2023-04-03T06:57:00;13.77;;;7.13;;
75311;SDS011;63906;55.686;37.532;2023-04-03T07:02:01;11.80;;;7.10;;
75311;SDS011;63906;55.686;37.532;2023-04-03T07:07:02;12.20;;;6.93;;
75311;SDS011;63906;55.686;37.532;2023-04-03T07:12:02;13.48;;;7.85;;
75311;SDS011;63906;55.686;37.532;2023-04-03T07:17:03;17.40;;;7.05;;
75311;SDS011;63906;55.686;37.532;2023-04-03T07:22:04;12.35;;;7.20;;
75311;SDS011;63906;55.686;37.532;2023-04-03T07:27:04;11.20;;;6.68;;
75311;SDS011;63906;55.686;37.532;2023-04-03T07:32:06;15.38;;;8.43;;
75311;SDS011;63906;55.686;37.532;2023-04-03T07:37:07;14.65;;;7.60;;
75311;SDS011;63906;55.686;37.532;2023-04-03T07:47:10;19.95;;;9.27;;
75311;SDS011;63906;55.686;37.532;2023-04-03T07:52:10;16.42;;;7.38;;
75311;SDS011;63906;55.686;37.532;2023-04-03T07:57:11;20.02;;;7.57;;
75311;SDS011;63906;55.686;37.532;2023-04-03T08:02:11;13.73;;;7.38;;
75311;SDS011;63906;55.686;37.532;2023-04-03T08:07:12;11.77;;;6.57;;
75311;SDS011;63906;55.686;37.532;2023-04-03T08:12:13;10.60;;;6.15;;
75311;SDS011;63906;55.686;37.532;2023-04-03T08:17:15;17.10;;;7.20;;
75311;SDS011;63906;55.686;37.532;2023-04-03T08:22:15;19.27;;;8.18;;
75311;SDS011;63906;55.686;37.532;2023-04-03T08:27:16;19.98;;;8.75;;
75311;SDS011;63906;55.686;37.532;2023-04-03T08:32:19;14.68;;;7.30;;
75311;SDS011;63906;55.686;37.532;2023-04-03T08:37:19;16.77;;;7.05;;
75311;SDS011;63906;55.686;37.532;2023-04-03T08:53:13;17.48;;;9.70;;
75311;SDS011;63906;55.686;37.532;2023-04-03T08:58:16;13.20;;;7.70;;
75311;SDS011;63906;55.686;37.532;2023-04-03T09:03:20;12.55;;;8.55;;
75311;SDS011;63906;55.686;37.532;2023-04-03T09:13:54;18.58;;;9.05;;
75311;SDS011;63906;55.686;37.532;2023-04-03T09:19:15;18.23;;;10.65;;
75311;SDS011;63906;55.686;37.532;2023-04-03T09:24:30;21.38;;;10.23;;
75311;SDS011;63906;55.686;37.532;2023-04-03T09:29:33;16.50;;;8.60;;
75311;SDS011;63906;55.686;37.532;2023-04-03T09:34:38;13.98;;;7.47;;
75311;SDS011;63906;55.686;37.532;2023-04-03T09:39:59;18.85;;;8.68;;
75311;SDS011;63906;55.686;37.532;2023-04-03T09:45:02;15.57;;;9.13;;
75311;SDS011;63906;55.686;37.532;2023-04-03T09:55:23;12.10;;;7.07;;
75311;SDS011;63906;55.686;37.532;2023-04-03T10:00:35;12.85;;;7.88;;
75311;SDS011;63906;55.686;37.532;2023-04-03T10:05:38;25.10;;;9.93;;
75311;SDS011;63906;55.686;37.532;2023-04-03T10:10:41;19.25;;;10.02;;
75311;SDS011;63906;55.686;37.532;2023-04-03T10:15:56;17.33;;;9.43;;
75311;SDS011;63906;55.686;37.532;2023-04-03T10:21:29;12.43;;;7.40;;
75311;SDS011;63906;55.686;37.532;2023-04-03T10:27:18;17.58;;;8.07;;
75311;SDS011;63906;55.686;37.532;2023-04-03T10:32:43;14.27;;;7.47;;
75311;SDS011;63906;55.686;37.532;2023-04-03T10:37:52;16.98;;;9.10;;
75311;SDS011;63906;55.686;37.532;2023-04-03T10:58:40;13.63;;;7.85;;
75311;SDS011;63906;55.686;37.532;2023-04-03T11:03:45;14.55;;;7.57;;
75311;SDS011;63906;55.686;37.532;2023-04-03T11:08:57;15.48;;;8.70;;
75311;SDS011;63906;55.686;37.532;2023-04-03T11:19:36;14.60;;;7.82;;
75311;SDS011;63906;55.686;37.532;2023-04-03T11:24:45;11.95;;;7.13;;
75311;SDS011;63906;55.686;37.532;2023-04-03T11:29:51;10.20;;;6.78;;
75311;SDS011;63906;55.686;37.532;2023-04-03T11:34:54;16.95;;;8.65;;
75311;SDS011;63906;55.686;37.532;2023-04-03T11:40:00;12.85;;;7.00;;
75311;SDS011;63906;55.686;37.532;2023-04-03T11:55:41;14.30;;;7.30;;
75311;SDS011;63906;55.686;37.532;2023-04-03T12:16:21;16.60;;;8.27;;
75311;SDS011;63906;55.686;37.532;2023-04-03T12:37:17;11.70;;;6.20;;
75311;SDS011;63906;55.686;37.532;2023-04-03T12:42:33;12.95;;;6.00;;
75311;SDS011;63906;55.686;37.532;2023-04-03T12:48:06;11.13;;;7.45;;
75311;SDS011;63906;55.686;37.532;2023-04-03T12:58:35;10.13;;;5.60;;
75311;SDS011;63906;55.686;37.532;2023-04-03T13:03:36;10.73;;;4.60;;
75311;SDS011;63906;55.686;37.532;2023-04-03T13:08:48;7.28;;;3.65;;
75311;SDS011;63906;55.686;37.532;2023-04-03T13:13:59;7.15;;;3.70;;
75311;SDS011;63906;55.686;37.532;2023-04-03T13:19:03;13.20;;;5.80;;
75311;SDS011;63906;55.686;37.532;2023-04-03T13:24:04;7.55;;;3.97;;
75311;SDS011;63906;55.686;37.532;2023-04-03T13:29:07;6.70;;;3.88;;
75311;SDS011;63906;55.686;37.532;2023-04-03T13:34:19;4.47;;;2.53;;
75311;SDS011;63906;55.686;37.532;2023-04-03T13:39:26;7.63;;;3.83;;
75311;SDS011;63906;55.686;37.532;2023-04-03T13:44:33;7.22;;;3.80;;
75311;SDS011;63906;55.686;37.532;2023-04-03T13:49:36;5.50;;;3.95;;
75311;SDS011;63906;55.686;37.532;2023-04-03T13:54:39;9.38;;;4.15;;
75311;SDS011;63906;55.686;37.532;2023-04-03T13:59:40;5.45;;;3.22;;
75311;SDS011;63906;55.686;37.532;2023-04-03T14:09:44;5.78;;;4.43;;
75311;SDS011;63906;55.686;37.532;2023-04-03T14:14:45;7.20;;;4.20;;
75311;SDS011;63906;55.686;37.532;2023-04-03T14:19:46;6.07;;;3.60;;
75311;SDS011;63906;55.686;37.532;2023-04-03T14:24:48;7.32;;;4.25;;
75311;SDS011;63906;55.686;37.532;2023-04-03T14:29:51;9.05;;;3.88;;
75311;SDS011;63906;55.686;37.532;2023-04-03T14:39:57;6.40;;;4.28;;
75311;SDS011;63906;55.686;37.532;2023-04-03T14:44:59;7.55;;;4.82;;
75311;SDS011;63906;55.686;37.532;2023-04-03T14:50:02;7.20;;;4.28;;
75311;SDS011;63906;55.686;37.532;2023-04-03T14:55:05;7.55;;;4.50;;
75311;SDS011;63906;55.686;37.532;2023-04-03T15:00:07;7.03;;;4.43;;
75311;SDS011;63906;55.686;37.532;2023-04-03T15:05:12;7.32;;;4.10;;
75311;SDS011;63906;55.686;37.532;2023-04-03T15:10:18;7.60;;;4.40;;
75311;SDS011;63906;55.686;37.532;2023-04-03T15:15:22;6.97;;;3.88;;
75311;SDS011;63906;55.686;37.532;2023-04-03T15:20:24;6.57;;;3.83;;
75311;SDS011;63906;55.686;37.532;2023-04-03T15:25:26;5.05;;;3.40;;
75311;SDS011;63906;55.686;37.532;2023-04-03T15:30:27;6.35;;;4.07;;
75311;SDS011;63906;55.686;37.532;2023-04-03T15:35:28;7.90;;;4.05;;
75311;SDS011;63906;55.686;37.532;2023-04-03T15:40:29;11.55;;;4.90;;
75311;SDS011;63906;55.686;37.532;2023-04-03T15:45:33;7.55;;;4.90;;
75311;SDS011;63906;55.686;37.532;2023-04-03T15:50:36;11.10;;;4.35;;
75311;SDS011;63906;55.686;37.532;2023-04-03T15:55:38;10.07;;;4.88;;
75311;SDS011;63906;55.686;37.532;2023-04-03T16:00:39;5.75;;;4.38;;
75311;SDS011;63906;55.686;37.532;2023-04-03T16:05:40;10.18;;;4.88;;
75311;SDS011;63906;55.686;37.532;2023-04-03T16:10:41;9.73;;;4.90;;
75311;SDS011;63906;55.686;37.532;2023-04-03T16:15:41;12.38;;;5.78;;
75311;SDS011;63906;55.686;37.532;2023-04-03T16:20:43;10.15;;;4.90;;
75311;SDS011;63906;55.686;37.532;2023-04-03T16:25:43;13.93;;;6.55;;
75311;SDS011;63906;55.686;37.532;2023-04-03T16:30:47;7.93;;;4.70;;
75311;SDS011;63906;55.686;37.532;2023-04-03T16:35:50;10.15;;;4.80;;
75311;SDS011;63906;55.686;37.532;2023-04-03T16:45:59;7.45;;;4.80;;
75311;SDS011;63906;55.686;37.532;2023-04-03T16:51:02;9.60;;;4.90;;
75311;SDS011;63906;55.686;37.532;2023-04-03T16:56:02;9.85;;;4.85;;
75311;SDS011;63906;55.686;37.532;2023-04-03T17:01:10;11.05;;;5.28;;
75311;SDS011;63906;55.686;37.532;2023-04-03T17:06:16;8.68;;;5.55;;
75311;SDS011;63906;55.686;37.532;2023-04-03T17:11:19;8.65;;;5.00;;
75311;SDS011;63906;55.686;37.532;2023-04-03T17:16:20;8.40;;;5.40;;
75311;SDS011;63906;55.686;37.532;2023-04-03T17:21:21;9.05;;;5.63;;
75311;SDS011;63906;55.686;37.532;2023-04-03T17:26:23;7.93;;;4.28;;
75311;SDS011;63906;55.686;37.532;2023-04-03T17:31:25;7.15;;;4.63;;
75311;SDS011;63906;55.686;37.532;2023-04-03T17:36:35;9.95;;;4.60;;
75311;SDS011;63906;55.686;37.532;2023-04-03T17:41:36;5.68;;;4.18;;
75311;SDS011;63906;55.686;37.532;2023-04-03T17:46:37;6.65;;;3.70;;
75311;SDS011;63906;55.686;37.532;2023-04-03T17:51:37;8.18;;;4.35;;
75311;SDS011;63906;55.686;37.532;2023-04-03T17:56:38;8.10;;;4.65;;
75311;SDS011;63906;55.686;37.532;2023-04-03T18:01:43;7.78;;;4.50;;
75311;SDS011;63906;55.686;37.532;2023-04-03T18:06:47;6.97;;;4.82;;
75311;SDS011;63906;55.686;37.532;2023-04-03T18:11:50;9.43;;;5.18;;
75311;SDS011;63906;55.686;37.532;2023-04-03T18:16:52;5.97;;;4.20;;
75311;SDS011;63906;55.686;37.532;2023-04-03T18:21:54;5.55;;;3.83;;
75311;SDS011;63906;55.686;37.532;2023-04-03T18:27:00;8.82;;;5.18;;
75311;SDS011;63906;55.686;37.532;2023-04-03T18:32:05;9.13;;;4.97;;
75311;SDS011;63906;55.686;37.532;2023-04-03T18:37:08;8.32;;;5.18;;
75311;SDS011;63906;55.686;37.532;2023-04-03T18:42:10;8.43;;;4.90;;
75311;SDS011;63906;55.686;37.532;2023-04-03T18:47:16;7.57;;;4.90;;
75311;SDS011;63906;55.686;37.532;2023-04-03T18:52:17;6.50;;;3.70;;
75311;SDS011;63906;55.686;37.532;2023-04-03T18:57:19;10.30;;;6.25;;
75311;SDS011;63906;55.686;37.532;2023-04-03T19:02:20;9.63;;;5.45;;
75311;SDS011;63906;55.686;37.532;2023-04-03T19:07:23;10.35;;;5.88;;
75311;SDS011;63906;55.686;37.532;2023-04-03T19:12:24;9.75;;;5.40;;
75311;SDS011;63906;55.686;37.532;2023-04-03T19:17:25;13.75;;;8.30;;
75311;SDS011;63906;55.686;37.532;2023-04-03T19:22:27;9.32;;;5.70;;
75311;SDS011;63906;55.686;37.532;2023-04-03T19:27:29;11.55;;;6.90;;
75311;SDS011;63906;55.686;37.532;2023-04-03T19:32:33;10.25;;;6.95;;
75311;SDS011;63906;55.686;37.532;2023-04-03T19:37:34;11.68;;;7.07;;
75311;SDS011;63906;55.686;37.532;2023-04-03T19:42:34;13.65;;;7.70;;
75311;SDS011;63906;55.686;37.532;2023-04-03T19:47:41;14.30;;;7.95;;
75311;SDS011;63906;55.686;37.532;2023-04-03T19:52:42;12.23;;;7.32;;
75311;SDS011;63906;55.686;37.532;2023-04-03T19:57:46;11.70;;;6.75;;
75311;SDS011;63906;55.686;37.532;2023-04-03T20:02:49;12.40;;;6.82;;
75311;SDS011;63906;55.686;37.532;2023-04-03T20:07:50;10.63;;;7.13;;
75311;SDS011;63906;55.686;37.532;2023-04-03T20:12:50;11.65;;;7.43;;
75311;SDS011;63906;55.686;37.532;2023-04-03T20:17:51;12.88;;;8.05;;
75311;SDS011;63906;55.686;37.532;2023-04-03T20:22:52;11.20;;;6.35;;
75311;SDS011;63906;55.686;37.532;2023-04-03T20:27:53;15.48;;;9.07;;
75311;SDS011;63906;55.686;37.532;2023-04-03T20:32:53;15.10;;;8.02;;
75311;SDS011;63906;55.686;37.532;2023-04-03T20:37:58;13.75;;;8.40;;
75311;SDS011;63906;55.686;37.532;2023-04-03T20:42:59;13.93;;;8.27;;
75311;SDS011;63906;55.686;37.532;2023-04-03T20:48:02;17.52;;;8.93;;
75311;SDS011;63906;55.686;37.532;2023-04-03T20:53:04;11.95;;;7.63;;
75311;SDS011;63906;55.686;37.532;2023-04-03T20:58:05;14.20;;;7.90;;
75311;SDS011;63906;55.686;37.532;2023-04-03T21:03:06;13.43;;;8.13;;
75311;SDS011;63906;55.686;37.532;2023-04-03T21:19:27;14.65;;;8.27;;
75311;SDS011;63906;55.686;37.532;2023-04-03T21:24:28;15.82;;;8.98;;
75311;SDS011;63906;55.686;37.532;2023-04-03T21:29:30;15.02;;;8.10;;
75311;SDS011;63906;55.686;37.532;2023-04-03T21:34:31;14.77;;;8.45;;
75311;SDS011;63906;55.686;37.532;2023-04-03T21:39:35;13.73;;;9.05;;
75311;SDS011;63906;55.686;37.532;2023-04-03T21:44:36;11.52;;;7.43;;
75311;SDS011;63906;55.686;37.532;2023-04-03T21:49:37;12.52;;;7.88;;
75311;SDS011;63906;55.686;37.532;2023-04-03T21:54:37;13.85;;;7.85;;
75311;SDS011;63906;55.686;37.532;2023-04-03T21:59:38;14.93;;;8.25;;
75311;SDS011;63906;55.686;37.532;2023-04-03T22:04:38;18.47;;;8.33;;
75311;SDS011;63906;55.686;37.532;2023-04-03T22:09:39;13.40;;;8.02;;
75311;SDS011;63906;55.686;37.532;2023-04-03T22:14:40;12.50;;;7.32;;
75311;SDS011;63906;55.686;37.532;2023-04-03T22:19:41;14.43;;;7.63;;
75311;SDS011;63906;55.686;37.532;2023-04-03T22:24:41;11.10;;;6.80;;
75311;SDS011;63906;55.686;37.532;2023-04-03T22:29:42;10.07;;;6.43;;
75311;SDS011;63906;55.686;37.532;2023-04-03T22:34:42;11.03;;;6.97;;
75311;SDS011;63906;55.686;37.532;2023-04-03T22:39:43;11.75;;;6.85;;
75311;SDS011;63906;55.686;37.532;2023-04-03T22:44:43;11.27;;;6.03;;
75311;SDS011;63906;55.686;37.532;2023-04-03T22:49:44;11.00;;;6.60;;
75311;SDS011;63906;55.686;37.532;2023-04-03T22:54:44;10.03;;;6.60;;
75311;SDS011;63906;55.686;37.532;2023-04-03T22:59:45;9.40;;;6.10;;
75311;SDS011;63906;55.686;37.532;2023-04-03T23:04:45;10.25;;;5.82;;
75311;SDS011;63906;55.686;37.532;2023-04-03T23:09:46;12.18;;;7.30;;
75311;SDS011;63906;55.686;37.532;2023-04-03T23:14:47;11.68;;;6.30;;
75311;SDS011;63906;55.686;37.532;2023-04-03T23:19:47;10.38;;;6.78;;
75311;SDS011;63906;55.686;37.532;2023-04-03T23:24:48;9.98;;;6.82;;
75311;SDS011;63906;55.686;37.532;2023-04-03T23:29:48;8.10;;;5.72;;
75311;SDS011;63906;55.686;37.532;2023-04-03T23:34:48;9.73;;;5.83;;
75311;SDS011;63906;55.686;37.532;2023-04-03T23:39:49;10.90;;;6.22;;
75311;SDS011;63906;55.686;37.532;2023-04-03T23:44:49;10.00;;;6.90;;
75311;SDS011;63906;55.686;37.532;2023-04-03T23:49:50;11.65;;;6.88;;
75311;SDS011;63906;55.686;37.532;2023-04-03T23:54:51;11.05;;;6.57;;
75311;SDS011;63906;55.686;37.532;2023-04-03T23:59:51;11.57;;;6.70;;
